createdAt,value
2018-06-16T00:00:49.961Z,28.97
2018-06-16T00:03:18.226Z,29.00
2018-06-16T00:05:46.466Z,30.20
2018-06-16T00:08:14.652Z,31.10
2018-06-16T00:10:42.872Z,30.03
2018-06-16T00:13:11.074Z,29.30
2018-06-16T00:15:39.254Z,29.63
2018-06-16T00:18:07.579Z,30.43
2018-06-16T00:20:35.765Z,31.23
2018-06-16T00:23:03.941Z,27.47
2018-06-16T00:25:32.126Z,31.00
2018-06-16T00:28:00.301Z,30.53
2018-06-16T00:30:28.487Z,30.30
2018-06-16T00:32:56.686Z,31.30
2018-06-16T00:35:24.866Z,32.60
2018-06-16T00:37:53.048Z,32.50
2018-06-16T00:40:21.342Z,32.00
2018-06-16T00:42:49.527Z,30.83
2018-06-16T00:45:17.695Z,31.77
2018-06-16T00:47:45.878Z,31.30
2018-06-16T00:50:14.050Z,30.60
2018-06-16T00:52:42.245Z,30.77
2018-06-16T00:55:10.460Z,31.17
2018-06-16T00:57:45.012Z,30.70
2018-06-16T01:00:13.245Z,31.10
2018-06-16T01:02:41.758Z,30.90
2018-06-16T01:05:10.266Z,30.97
2018-06-16T01:07:38.641Z,31.20
2018-06-16T01:10:07.545Z,32.83
2018-06-16T01:12:35.729Z,33.80
2018-06-16T01:15:03.930Z,34.47
2018-06-16T01:17:32.110Z,36.00
2018-06-16T01:20:01.206Z,37.47
2018-06-16T01:22:29.706Z,35.50
2018-06-16T01:24:57.922Z,37.87
2018-06-16T01:27:26.227Z,36.77
2018-06-16T01:29:54.401Z,33.57
2018-06-16T01:32:22.670Z,35.93
2018-06-16T01:34:50.853Z,33.97
2018-06-16T01:37:19.556Z,33.83
2018-06-16T01:39:47.774Z,32.27
2018-06-16T01:42:15.965Z,33.00
2018-06-16T01:44:44.210Z,35.30
2018-06-16T01:47:12.411Z,33.67
2018-06-16T01:49:40.734Z,32.70
2018-06-16T01:52:09.481Z,35.40
2018-06-16T01:54:37.678Z,35.27
2018-06-16T01:57:05.866Z,34.23
2018-06-16T01:59:34.049Z,36.60
2018-06-16T02:02:02.246Z,33.23
2018-06-16T02:04:30.522Z,35.60
2018-06-16T02:06:58.717Z,33.97
2018-06-16T02:09:26.889Z,35.37
2018-06-16T02:11:55.062Z,35.83
2018-06-16T02:14:23.273Z,36.00
2018-06-16T02:16:51.445Z,34.37
2018-06-16T02:19:19.661Z,34.97
2018-06-16T02:21:47.946Z,35.57
2018-06-16T02:24:16.122Z,35.03
2018-06-16T02:26:44.316Z,37.33
2018-06-16T02:29:12.482Z,34.30
2018-06-16T02:31:40.698Z,35.50
2018-06-16T02:34:08.963Z,34.20
2018-06-16T02:36:37.162Z,32.77
2018-06-16T02:39:07.619Z,33.80
2018-06-16T02:41:35.798Z,33.50
2018-06-16T02:44:04.081Z,35.90
2018-06-16T02:46:32.362Z,34.23
2018-06-16T02:49:00.546Z,35.07
2018-06-16T02:51:28.750Z,35.57
2018-06-16T02:53:56.938Z,34.37
2018-06-16T02:56:25.126Z,33.60
2018-06-16T02:58:53.314Z,33.80
2018-06-16T03:01:21.510Z,30.47
2018-06-16T03:03:49.685Z,33.60
2018-06-16T03:06:17.878Z,32.90
2018-06-16T03:08:46.058Z,34.83
2018-06-16T03:11:14.242Z,37.60
2018-06-16T03:13:42.430Z,33.17
2018-06-16T03:16:10.618Z,33.30
2018-06-16T03:18:38.790Z,32.47
2018-06-16T03:21:07.074Z,32.83
2018-06-16T03:23:35.414Z,32.00
2018-06-16T03:26:03.549Z,35.63
2018-06-16T03:28:31.746Z,32.00
2018-06-16T03:30:59.958Z,34.37
2018-06-16T03:33:28.138Z,31.77
2018-06-16T03:35:56.330Z,34.20
2018-06-16T03:38:24.514Z,30.40
2018-06-16T03:40:52.726Z,31.20
2018-06-16T03:43:20.910Z,32.20
2018-06-16T03:45:49.166Z,32.77
2018-06-16T03:48:17.354Z,32.60
2018-06-16T03:50:45.538Z,32.30
2018-06-16T03:53:13.712Z,33.20
2018-06-16T03:55:41.918Z,31.00
2018-06-16T03:58:10.102Z,32.47
2018-06-16T04:00:38.293Z,31.80
2018-06-16T04:03:06.946Z,31.57
2018-06-16T04:05:35.146Z,32.07
2018-06-16T04:08:03.375Z,31.00
2018-06-16T04:10:31.629Z,30.77
2018-06-16T04:12:59.796Z,31.40
2018-06-16T04:15:27.971Z,31.40
2018-06-16T04:17:56.154Z,31.87
2018-06-16T04:20:24.342Z,33.63
2018-06-16T04:22:52.562Z,27.67
2018-06-16T04:25:20.846Z,28.30
2018-06-16T04:27:49.032Z,28.60
2018-06-16T04:30:17.214Z,28.10
2018-06-16T04:32:45.394Z,26.60
2018-06-16T04:35:13.591Z,26.47
2018-06-16T04:37:41.774Z,25.77
2018-06-16T04:40:09.958Z,27.47
2018-06-16T04:42:38.137Z,24.40
2018-06-16T04:45:06.527Z,26.23
2018-06-16T04:47:34.838Z,25.77
2018-06-16T04:50:03.040Z,27.17
2018-06-16T04:52:31.236Z,24.93
2018-06-16T04:54:59.405Z,24.87
2018-06-16T04:57:27.668Z,25.33
2018-06-16T04:59:55.843Z,25.10
2018-06-16T05:02:24.013Z,25.20
2018-06-16T05:04:52.186Z,26.90
2018-06-16T05:07:20.414Z,26.90
2018-06-16T05:09:48.609Z,24.77
2018-06-16T05:12:16.774Z,25.53
2018-06-16T05:14:44.978Z,26.40
2018-06-16T05:17:13.142Z,24.43
2018-06-16T05:19:41.321Z,24.10
2018-06-16T05:22:09.497Z,25.77
2018-06-16T05:24:37.670Z,23.17
2018-06-16T05:27:05.903Z,26.70
2018-06-16T05:29:34.107Z,26.00
2018-06-16T05:32:02.302Z,23.17
2018-06-16T05:34:30.488Z,25.33
2018-06-16T05:36:58.746Z,25.63
2018-06-16T05:39:26.923Z,25.57
2018-06-16T05:41:55.131Z,24.93
2018-06-16T05:44:23.298Z,24.40
2018-06-16T05:46:51.506Z,26.43
2018-06-16T05:49:19.699Z,26.30
2018-06-16T05:51:47.856Z,23.50
2018-06-16T05:54:16.030Z,25.13
2018-06-16T05:56:44.314Z,22.70
2018-06-16T05:59:12.496Z,23.70
2018-06-16T06:01:40.718Z,24.03
2018-06-16T06:04:08.934Z,23.33
2018-06-16T06:06:37.121Z,22.73
2018-06-16T06:09:07.121Z,24.10
2018-06-16T06:11:35.309Z,22.53
2018-06-16T06:14:03.522Z,23.17
2018-06-16T06:16:31.694Z,22.50
2018-06-16T06:18:59.902Z,23.13
2018-06-16T06:21:28.130Z,24.00
2018-06-16T06:23:56.329Z,23.63
2018-06-16T06:26:24.511Z,27.40
2018-06-16T06:28:52.682Z,24.03
2018-06-16T06:31:21.042Z,23.07
2018-06-16T06:33:49.298Z,23.43
2018-06-16T06:36:17.489Z,22.80
2018-06-16T06:38:45.673Z,23.30
2018-06-16T06:41:13.907Z,22.67
2018-06-16T06:43:42.087Z,22.00
2018-06-16T06:46:10.290Z,23.70
2018-06-16T06:48:38.476Z,22.17
2018-06-16T06:51:06.668Z,23.30
2018-06-16T06:53:35.010Z,23.10
2018-06-16T06:56:03.282Z,21.40
2018-06-16T06:58:31.477Z,22.80
2018-06-16T07:00:59.686Z,21.10
2018-06-16T07:03:27.917Z,20.13
2018-06-16T07:05:56.090Z,20.20
2018-06-16T07:08:24.329Z,21.20
2018-06-16T07:10:52.682Z,21.50
2018-06-16T07:13:20.909Z,20.83
2018-06-16T07:15:49.113Z,20.77
2018-06-16T07:18:17.295Z,19.10
2018-06-16T07:20:45.490Z,19.00
2018-06-16T07:23:14.540Z,20.57
2018-06-16T07:25:42.749Z,20.00
2018-06-16T07:28:10.918Z,18.60
2018-06-16T07:30:39.113Z,18.20
2018-06-16T07:33:07.301Z,18.83
2018-06-16T07:35:35.495Z,19.20
2018-06-16T07:38:03.709Z,16.63
2018-06-16T07:40:31.898Z,19.07
2018-06-16T07:43:00.073Z,17.33
2018-06-16T07:45:28.262Z,17.03
2018-06-16T07:47:56.510Z,17.40
2018-06-16T07:50:24.691Z,17.57
2018-06-16T07:52:52.876Z,17.93
2018-06-16T07:55:21.098Z,17.87
2018-06-16T07:57:49.274Z,17.63
2018-06-16T08:00:17.454Z,17.37
2018-06-16T08:02:45.680Z,17.10
2018-06-16T08:05:13.830Z,15.90
2018-06-16T08:07:42.000Z,15.20
2018-06-16T08:10:10.218Z,17.53
2018-06-16T08:12:38.434Z,14.83
2018-06-16T08:15:06.622Z,15.93
2018-06-16T08:17:34.815Z,14.60
2018-06-16T08:20:03.001Z,15.63
2018-06-16T08:22:31.166Z,16.03
2018-06-16T08:24:59.509Z,14.90
2018-06-16T08:27:27.674Z,14.30
2018-06-16T08:29:55.870Z,13.40
2018-06-16T08:32:24.039Z,13.00
2018-06-16T08:34:52.273Z,13.80
2018-06-16T08:37:20.401Z,12.20
2018-06-16T08:39:48.654Z,10.27
2018-06-16T08:42:16.911Z,10.20
2018-06-16T08:44:45.117Z,11.80
2018-06-16T08:47:13.302Z,10.27
2018-06-16T08:49:41.486Z,9.63
2018-06-16T08:52:09.661Z,10.77
2018-06-16T08:54:37.883Z,9.70
2018-06-16T08:57:06.142Z,9.43
2018-06-16T08:59:34.327Z,10.73
2018-06-16T09:02:02.531Z,11.30
2018-06-16T09:04:30.755Z,9.40
2018-06-16T09:06:59.799Z,10.07
2018-06-16T09:09:27.962Z,9.37
2018-06-16T09:11:56.138Z,9.80
2018-06-16T09:14:24.366Z,9.73
2018-06-16T09:16:52.854Z,10.90
2018-06-16T09:19:21.086Z,10.23
2018-06-16T09:21:49.521Z,11.10
2018-06-16T09:24:17.697Z,9.70
2018-06-16T09:26:45.948Z,10.13
2018-06-16T09:29:14.106Z,9.07
2018-06-16T09:31:42.344Z,9.80
2018-06-16T09:34:10.470Z,8.93
2018-06-16T09:36:38.642Z,9.10
2018-06-16T09:39:08.930Z,10.43
2018-06-16T09:41:37.202Z,10.10
2018-06-16T09:44:05.638Z,9.20
2018-06-16T09:46:33.825Z,9.90
2018-06-16T09:49:02.051Z,11.30
2018-06-16T09:51:30.242Z,9.70
2018-06-16T09:53:58.429Z,11.23
2018-06-16T09:56:26.646Z,9.00
2018-06-16T09:58:54.835Z,9.40
2018-06-16T10:01:23.006Z,10.10
2018-06-16T10:03:52.210Z,11.73
2018-06-16T10:06:20.403Z,11.17
2018-06-16T10:08:48.578Z,9.77
2018-06-16T10:11:16.750Z,10.40
2018-06-16T10:13:44.981Z,9.70
2018-06-16T10:16:13.154Z,9.40
2018-06-16T10:18:41.333Z,9.07
2018-06-16T10:21:09.513Z,11.50
2018-06-16T10:23:37.694Z,8.43
2018-06-16T10:26:06.063Z,9.33
2018-06-16T10:28:34.250Z,8.67
2018-06-16T10:31:02.454Z,9.20
2018-06-16T10:33:30.649Z,9.70
2018-06-16T10:35:58.947Z,10.87
2018-06-16T10:38:27.208Z,9.70
2018-06-16T10:40:55.402Z,10.37
2018-06-16T10:43:23.589Z,9.93
2018-06-16T10:45:51.805Z,9.47
2018-06-16T10:48:20.066Z,9.63
2018-06-16T10:50:48.258Z,9.40
2018-06-16T10:53:16.437Z,9.23
2018-06-16T10:55:44.614Z,9.27
2018-06-16T10:58:12.818Z,8.10
2018-06-16T11:00:41.874Z,12.53
2018-06-16T11:03:10.062Z,9.63
2018-06-16T11:05:38.310Z,9.30
2018-06-16T11:08:06.510Z,9.97
2018-06-16T11:10:34.681Z,9.80
2018-06-16T11:13:02.865Z,11.67
2018-06-16T11:15:31.132Z,10.63
2018-06-16T11:17:59.301Z,12.27
2018-06-16T11:20:27.484Z,9.97
2018-06-16T11:22:55.678Z,10.03
2018-06-16T11:25:23.866Z,9.00
2018-06-16T11:27:52.067Z,10.03
2018-06-16T11:30:20.260Z,11.03
2018-06-16T11:32:48.565Z,9.30
2018-06-16T11:35:16.727Z,9.50
2018-06-16T11:37:44.921Z,12.17
2018-06-16T11:40:13.097Z,9.70
2018-06-16T11:42:41.310Z,9.93
2018-06-16T11:45:09.517Z,10.10
2018-06-16T11:47:37.774Z,9.63
2018-06-16T11:50:06.294Z,10.00
2018-06-16T11:52:34.566Z,9.60
2018-06-16T11:55:02.746Z,10.33
2018-06-16T11:57:30.934Z,10.03
2018-06-16T11:59:59.114Z,9.80
2018-06-16T12:02:27.288Z,11.37
2018-06-16T12:04:55.474Z,10.40
2018-06-16T12:07:23.685Z,10.10
2018-06-16T12:09:51.853Z,10.33
2018-06-16T12:12:20.088Z,10.37
2018-06-16T12:14:48.246Z,9.80
2018-06-16T12:17:16.455Z,10.87
2018-06-16T12:19:44.633Z,12.20
2018-06-16T12:22:12.826Z,11.53
2018-06-16T12:24:41.030Z,10.97
2018-06-16T12:27:09.206Z,11.53
2018-06-16T12:29:37.390Z,11.13
2018-06-16T12:32:05.713Z,11.10
2018-06-16T12:34:33.941Z,10.63
2018-06-16T12:37:02.142Z,12.77
2018-06-16T12:39:30.322Z,12.67
2018-06-16T12:41:58.498Z,10.40
2018-06-16T12:44:26.881Z,11.00
2018-06-16T12:46:55.102Z,11.60
2018-06-16T12:49:23.294Z,11.30
2018-06-16T12:51:51.483Z,11.00
2018-06-16T12:54:19.672Z,10.77
2018-06-16T12:56:47.869Z,11.57
2018-06-16T12:59:16.046Z,11.60
2018-06-16T13:01:44.376Z,10.33
2018-06-16T13:04:12.554Z,10.83
2018-06-16T13:06:40.771Z,9.97
2018-06-16T13:09:08.961Z,10.93
2018-06-16T13:11:37.174Z,10.13
2018-06-16T13:14:05.370Z,10.43
2018-06-16T13:16:33.567Z,10.60
2018-06-16T13:19:02.125Z,10.63
2018-06-16T13:21:30.297Z,10.20
2018-06-16T13:23:58.626Z,10.37
2018-06-16T13:26:26.817Z,10.60
2018-06-16T13:28:55.253Z,10.87
2018-06-16T13:31:24.251Z,10.43
2018-06-16T13:33:52.422Z,11.83
2018-06-16T13:36:20.659Z,10.97
2018-06-16T13:38:48.933Z,9.33
2018-06-16T13:41:17.113Z,10.77
2018-06-16T13:43:45.310Z,10.60
2018-06-16T13:46:13.515Z,10.83
2018-06-16T13:48:41.694Z,9.80
2018-06-16T13:51:09.982Z,9.27
2018-06-16T13:53:38.183Z,10.10
2018-06-16T13:56:06.439Z,9.40
2018-06-16T13:58:34.633Z,9.40
2018-06-16T14:01:02.854Z,10.23
2018-06-16T14:03:31.053Z,9.97
2018-06-16T14:05:59.259Z,10.40
2018-06-16T14:08:27.434Z,9.97
2018-06-16T14:10:55.609Z,9.70
2018-06-16T14:13:23.805Z,9.23
2018-06-16T14:15:51.985Z,10.50
2018-06-16T14:18:20.218Z,9.57
2018-06-16T14:20:48.410Z,10.10
2018-06-16T14:23:16.583Z,9.10
2018-06-16T14:25:44.798Z,10.60
2018-06-16T14:28:12.974Z,10.20
2018-06-16T14:30:41.146Z,10.50
2018-06-16T14:33:09.326Z,11.20
2018-06-16T14:35:37.542Z,10.67
2018-06-16T14:38:05.829Z,10.07
2018-06-16T14:40:34.097Z,9.50
2018-06-16T14:43:02.274Z,9.50
2018-06-16T14:45:30.454Z,9.50
2018-06-16T14:47:58.634Z,10.30
2018-06-16T14:50:26.826Z,9.83
2018-06-16T14:52:55.035Z,10.27
2018-06-16T14:55:23.308Z,10.60
2018-06-16T14:57:51.478Z,9.67
2018-06-16T15:00:19.686Z,10.40
2018-06-16T15:02:47.859Z,9.80
2018-06-16T15:05:16.052Z,10.13
2018-06-16T15:07:44.231Z,10.33
2018-06-16T15:10:12.406Z,10.00
2018-06-16T15:12:40.642Z,10.57
2018-06-16T15:15:08.810Z,11.27
2018-06-16T15:17:37.017Z,10.80
2018-06-16T15:20:05.250Z,10.20
2018-06-16T15:22:33.416Z,10.57
2018-06-16T15:25:01.674Z,10.47
2018-06-16T15:27:29.837Z,10.77
2018-06-16T15:29:58.046Z,11.17
2018-06-16T15:32:26.222Z,10.83
2018-06-16T15:34:54.415Z,11.20
2018-06-16T15:37:22.681Z,10.37
2018-06-16T15:39:50.843Z,9.83
2018-06-16T15:42:19.015Z,10.00
2018-06-16T15:44:47.186Z,9.77
2018-06-16T15:47:15.374Z,10.73
2018-06-16T15:49:43.570Z,10.03
2018-06-16T15:52:11.771Z,9.73
2018-06-16T15:54:39.945Z,9.10
2018-06-16T15:57:08.144Z,10.60
2018-06-16T15:59:36.298Z,9.13
2018-06-16T16:02:04.490Z,8.70
2018-06-16T16:04:32.654Z,9.20
2018-06-16T16:07:00.834Z,9.97
2018-06-16T16:09:29.026Z,9.90
2018-06-16T16:11:57.210Z,9.80
2018-06-16T16:14:25.378Z,9.70
2018-06-16T16:16:53.574Z,9.50
2018-06-16T16:19:21.742Z,9.40
2018-06-16T16:21:49.918Z,9.73
2018-06-16T16:24:18.102Z,9.27
2018-06-16T16:31:34.879Z,9.53
2018-06-16T16:34:03.106Z,10.67
2018-06-16T16:36:31.275Z,10.20
2018-06-16T16:38:59.454Z,10.43
2018-06-16T16:41:27.690Z,10.60
2018-06-16T16:43:55.941Z,10.20
2018-06-16T16:46:24.206Z,10.60
2018-06-16T16:48:52.421Z,10.03
2018-06-16T16:51:20.606Z,9.57
2018-06-16T16:53:48.806Z,10.70
2018-06-16T16:56:16.998Z,11.30
2018-06-16T16:58:45.270Z,11.10
2018-06-16T17:01:13.458Z,11.17
2018-06-16T17:03:41.638Z,11.37
2018-06-16T17:06:09.862Z,11.47
2018-06-16T17:08:38.130Z,12.07
2018-06-16T17:11:06.419Z,11.60
2018-06-16T17:13:34.610Z,10.57
2018-06-16T17:16:02.894Z,11.10
2018-06-16T17:18:31.189Z,12.20
2018-06-16T17:20:59.547Z,11.57
2018-06-16T17:23:27.850Z,11.40
2018-06-16T17:25:56.046Z,11.70
2018-06-16T17:28:25.253Z,11.63
2018-06-16T17:30:53.458Z,11.70
2018-06-16T17:33:21.782Z,10.40
2018-06-16T17:35:50.071Z,11.53
2018-06-16T17:38:18.222Z,11.10
2018-06-16T17:40:46.481Z,11.90
2018-06-16T17:43:14.678Z,10.77
2018-06-16T17:45:42.877Z,11.13
2018-06-16T17:48:11.143Z,11.67
2018-06-16T17:50:39.352Z,11.67
2018-06-16T17:53:07.638Z,11.60
2018-06-16T17:55:35.918Z,11.57
2018-06-16T17:58:04.113Z,11.93
2018-06-16T18:00:32.314Z,12.20
2018-06-16T18:03:00.579Z,12.20
2018-06-16T18:05:28.766Z,12.60
2018-06-16T18:07:57.018Z,13.23
2018-06-16T18:10:25.318Z,11.80
2018-06-16T18:12:53.550Z,10.27
2018-06-16T18:15:21.847Z,21.03
2018-06-16T18:17:50.161Z,13.00
2018-06-16T18:20:18.398Z,15.90
2018-06-16T18:22:46.614Z,19.13
2018-06-16T18:25:14.810Z,12.23
2018-06-16T18:27:43.062Z,16.23
2018-06-16T18:30:11.350Z,12.30
2018-06-16T18:32:39.635Z,16.90
2018-06-16T18:35:07.813Z,12.00
2018-06-16T18:37:36.058Z,16.20
2018-06-16T18:40:04.349Z,15.10
2018-06-16T18:42:32.582Z,16.00
2018-06-16T18:45:00.795Z,39.40
2018-06-16T18:47:29.060Z,15.53
2018-06-16T18:49:57.245Z,12.33
2018-06-16T18:52:25.550Z,14.13
2018-06-16T18:54:53.832Z,17.77
2018-06-16T18:57:22.014Z,16.97
2018-06-16T18:59:50.223Z,17.70
2018-06-16T19:02:18.490Z,24.13
2018-06-16T19:04:46.674Z,14.50
2018-06-16T19:07:15.078Z,15.03
2018-06-16T19:09:43.354Z,15.37
2018-06-16T19:12:11.542Z,17.90
2018-06-16T19:14:39.753Z,14.50
2018-06-16T19:17:08.073Z,14.43
2018-06-16T19:19:36.298Z,17.60
2018-06-16T19:22:04.514Z,16.63
2018-06-16T19:24:32.866Z,13.00
2018-06-16T19:27:01.103Z,12.67
2018-06-16T19:29:29.402Z,13.20
2018-06-16T19:31:57.637Z,14.83
2018-06-16T19:34:25.831Z,16.27
2018-06-16T19:36:54.051Z,13.33
2018-06-16T19:39:22.306Z,15.03
2018-06-16T19:41:50.494Z,19.40
2018-06-16T19:44:18.698Z,14.70
2018-06-16T19:46:46.962Z,13.93
2018-06-16T19:49:15.159Z,13.83
2018-06-16T19:51:43.401Z,14.50
2018-06-16T19:54:11.522Z,25.10
2018-06-16T19:56:39.717Z,15.10
2018-06-16T19:59:07.910Z,13.50
2018-06-16T20:01:36.228Z,13.23
2018-06-16T20:04:04.494Z,13.93
2018-06-16T20:06:32.783Z,14.07
2018-06-16T20:09:00.959Z,13.50
2018-06-16T20:11:29.162Z,13.60
2018-06-16T20:13:57.430Z,17.50
2018-06-16T20:16:25.641Z,15.37
2018-06-16T20:18:53.927Z,13.77
2018-06-16T20:21:22.198Z,14.63
2018-06-16T20:23:50.398Z,15.23
2018-06-16T20:26:18.702Z,13.30
2018-06-16T20:28:46.991Z,14.10
2018-06-16T20:31:15.181Z,12.70
2018-06-16T20:33:43.526Z,13.53
2018-06-16T20:36:11.750Z,14.03
2018-06-16T20:38:40.029Z,13.30
2018-06-16T20:41:08.301Z,14.37
2018-06-16T20:43:36.598Z,13.30
2018-06-16T20:46:04.970Z,15.40
2018-06-16T20:48:33.166Z,14.47
2018-06-16T20:51:01.391Z,13.83
2018-06-16T20:53:29.638Z,14.20
2018-06-16T20:55:57.837Z,13.97
2018-06-16T20:58:26.018Z,12.50
2018-06-16T21:00:54.219Z,14.77
2018-06-16T21:03:22.509Z,14.77
2018-06-16T21:05:50.786Z,13.10
2018-06-16T21:08:19.022Z,15.37
2018-06-16T21:10:47.269Z,14.00
2018-06-16T21:13:15.545Z,16.43
2018-06-16T21:15:43.726Z,16.17
2018-06-16T21:18:11.930Z,16.70
2018-06-16T21:20:40.213Z,17.20
2018-06-16T21:23:08.658Z,16.80
2018-06-16T21:25:36.895Z,15.70
2018-06-16T21:28:05.082Z,15.80
2018-06-16T21:30:33.521Z,17.00
2018-06-16T21:33:01.750Z,15.70
2018-06-16T21:35:29.946Z,15.60
2018-06-16T21:37:58.130Z,15.83
2018-06-16T21:40:26.314Z,16.37
2018-06-16T21:42:54.602Z,16.27
2018-06-16T21:45:22.802Z,15.63
2018-06-16T21:47:51.079Z,16.40
2018-06-16T21:50:19.274Z,16.00
2018-06-16T21:52:47.468Z,16.40
2018-06-16T21:55:15.734Z,16.40
2018-06-16T21:57:43.986Z,16.97
2018-06-16T22:00:13.835Z,17.00
2018-06-16T22:02:42.635Z,16.13
2018-06-16T22:05:10.924Z,17.63
2018-06-16T22:07:39.178Z,17.50
2018-06-16T22:10:08.271Z,19.60
2018-06-16T22:12:36.550Z,17.23
2018-06-16T22:15:05.182Z,17.03
2018-06-16T22:17:33.454Z,16.97
2018-06-16T22:20:01.691Z,17.50
2018-06-16T22:22:29.942Z,16.27
2018-06-16T22:24:58.179Z,17.07
2018-06-16T22:27:26.498Z,17.87
2018-06-16T22:29:54.779Z,18.03
2018-06-16T22:32:23.046Z,18.90
2018-06-16T22:34:51.961Z,16.70
2018-06-16T22:37:20.250Z,18.07
2018-06-16T22:39:48.537Z,17.07
2018-06-16T22:42:16.806Z,16.67
2018-06-16T22:44:45.002Z,18.50
2018-06-16T22:47:13.298Z,16.63
2018-06-16T22:49:41.577Z,18.80
2018-06-16T22:52:09.858Z,18.90
2018-06-16T22:54:38.038Z,16.97
2018-06-16T22:57:06.266Z,19.53
2018-06-16T22:59:34.450Z,18.37
2018-06-16T23:02:02.638Z,18.03
2018-06-16T23:04:31.196Z,18.20
2018-06-16T23:06:59.398Z,17.10
2018-06-16T23:09:27.686Z,17.73
2018-06-16T23:11:55.866Z,18.47
2018-06-16T23:14:24.066Z,16.47
2018-06-16T23:16:52.238Z,16.87
2018-06-16T23:19:20.431Z,17.97
2018-06-16T23:21:48.612Z,17.90
2018-06-16T23:24:16.810Z,17.10
2018-06-16T23:26:44.977Z,17.70
2018-06-16T23:29:13.173Z,19.77
2018-06-16T23:31:41.358Z,18.10
2018-06-16T23:34:09.543Z,19.63
2018-06-16T23:36:37.726Z,20.03
2018-06-16T23:39:08.666Z,20.37
2018-06-16T23:41:36.857Z,20.50
2018-06-16T23:44:05.141Z,18.43
2018-06-16T23:46:33.490Z,17.70
2018-06-16T23:49:01.677Z,18.70
2018-06-16T23:51:29.895Z,19.30
2018-06-16T23:53:58.154Z,17.60
2018-06-16T23:56:26.358Z,18.03
2018-06-16T23:58:54.562Z,16.27
